Time;durP1;ratioP1;P1;durP2;ratioP2;P2;SDS_P1;SDS_P2;PMS_P1;PMS_P2;Temp;Humidity;BMP_temperature;BMP_pressure;BME280_temperature;BME280_humidity;BME280_pressure;Samples;Min_cycle;Max_cycle;Signal;HPM_P1;HPM_P2
2022/12/20 00:00:02;;;;;;;1.38;1.27;;;;;;;21.18;33.29;101210.19;5070827;28;20112;-71
2022/12/20 00:02:30;;;;;;;1.47;1.37;;;;;;;21.22;32.79;101208.84;5072716;28;20051;-71
2022/12/20 00:04:55;;;;;;;1.55;1.27;;;;;;;21.22;33.03;101214.97;5070905;28;20482;-71
2022/12/20 00:07:21;;;;;;;1.30;1.20;;;;;;;21.23;33.10;101207.84;5070479;28;20042;-71
2022/12/20 00:09:46;;;;;;;1.40;1.27;;;;;;;21.19;33.23;101201.28;5069539;28;20618;-70
2022/12/20 00:12:12;;;;;;;1.33;1.20;;;;;;;21.20;33.38;101210.84;5079528;28;20494;-71
2022/12/20 00:14:37;;;;;;;1.63;1.45;;;;;;;21.13;33.26;101195.66;5081178;28;20039;-71
2022/12/20 00:17:03;;;;;;;1.40;1.10;;;;;;;21.15;33.25;101194.66;5080532;28;20097;-71
2022/12/20 00:19:28;;;;;;;0.90;0.90;;;;;;;21.19;32.97;101198.63;5074596;28;20083;-71
2022/12/20 00:21:54;;;;;;;1.88;1.40;;;;;;;21.10;33.26;101195.19;5074092;28;20032;-71
2022/12/20 00:24:19;;;;;;;1.42;1.13;;;;;;;21.12;33.16;101196.66;5075246;28;20505;-71
2022/12/20 00:26:45;;;;;;;1.77;1.42;;;;;;;21.15;33.28;101197.31;5072575;28;20097;-72
2022/12/20 00:29:11;;;;;;;1.23;1.20;;;;;;;21.19;33.08;101188.84;5068946;28;20063;-71
2022/12/20 00:31:36;;;;;;;1.40;1.30;;;;;;;21.12;33.19;101191.38;5071292;28;20044;-71
2022/12/20 00:34:02;;;;;;;1.40;1.30;;;;;;;21.08;33.24;101190.09;5076247;28;20045;-71
2022/12/20 00:36:30;;;;;;;1.33;1.23;;;;;;;21.02;33.44;101188.16;5076320;28;20123;-71
2022/12/20 00:38:57;;;;;;;1.05;1.05;;;;;;;21.16;33.07;101188.34;5073829;28;20123;-71
2022/12/20 00:41:25;;;;;;;1.23;1.13;;;;;;;21.15;33.00;101190.19;5073657;28;20032;-71
2022/12/20 00:43:51;;;;;;;1.25;1.15;;;;;;;21.14;33.16;101188.53;5069004;28;20033;-71
2022/12/20 00:46:19;;;;;;;2.03;1.13;;;;;;;21.06;33.20;101183.34;5074539;28;20044;-71
2022/12/20 00:48:45;;;;;;;1.40;1.30;;;;;;;21.11;33.33;101184.44;5075610;28;20032;-71
2022/12/20 00:51:17;;;;;;;1.20;1.10;;;;;;;21.06;33.49;101178.84;5077639;28;20407;-71
2022/12/20 00:53:43;;;;;;;1.55;1.40;;;;;;;21.00;33.37;101168.97;5072071;28;20104;-71
2022/12/20 00:56:11;;;;;;;1.00;1.00;;;;;;;21.07;33.38;101188.44;5073714;28;20110;-71
2022/12/20 00:58:39;;;;;;;1.50;1.40;;;;;;;21.12;33.22;101167.53;5074764;28;20032;-71
2022/12/20 01:01:13;;;;;;;1.42;0.95;;;;;;;21.06;33.26;101164.78;5065629;28;20683;-71
2022/12/20 01:03:39;;;;;;;1.83;1.27;;;;;;;21.05;33.27;101158.69;5070255;28;20101;-71
2022/12/20 01:06:05;;;;;;;1.50;1.13;;;;;;;21.01;33.37;101152.09;5067831;28;20474;-71
2022/12/20 01:08:30;;;;;;;1.55;1.35;;;;;;;21.02;33.38;101153.75;5077150;28;20085;-72
2022/12/20 01:11:17;;;;;;;1.17;1.08;;;;;;;21.03;33.37;101154.56;5065421;28;20044;-71
2022/12/20 01:13:46;;;;;;;1.10;1.10;;;;;;;21.05;33.22;101158.69;5068591;28;20162;-72
2022/12/20 01:16:22;;;;;;;1.70;1.20;;;;;;;21.11;33.30;101167.72;5070479;28;20032;-71
2022/12/20 01:18:48;;;;;;;1.38;1.27;;;;;;;21.05;33.33;101168.44;5073585;28;20066;-71
2022/12/20 01:21:17;;;;;;;1.38;1.27;;;;;;;21.11;33.03;101162.44;5076014;28;20071;-71
2022/12/20 01:23:42;;;;;;;0.98;0.98;;;;;;;21.01;33.36;101160.06;5069817;28;20046;-70
2022/12/20 01:26:13;;;;;;;1.17;1.08;;;;;;;21.07;33.33;101164.63;5074968;28;20033;-71
2022/12/20 01:28:40;;;;;;;1.17;1.08;;;;;;;21.05;33.36;101155.22;5075022;28;20055;-71
2022/12/20 01:31:08;;;;;;;1.30;1.20;;;;;;;21.09;33.30;101159.97;5071736;28;20036;-71
2022/12/20 01:33:35;;;;;;;1.80;1.35;;;;;;;21.04;33.38;101149.09;5068779;28;20044;-71
2022/12/20 01:36:07;;;;;;;0.90;0.90;;;;;;;21.02;33.33;101143.16;5073204;28;20028;-71
2022/12/20 01:38:34;;;;;;;1.30;1.20;;;;;;;20.99;33.38;101148.78;5068344;28;20048;-71
2022/12/20 01:40:59;;;;;;;1.45;1.35;;;;;;;21.03;33.25;101142.16;5072588;28;20055;-70
2022/12/20 01:43:44;;;;;;;1.70;1.38;;;;;;;20.91;33.52;101135.63;5074033;28;20036;-70
2022/12/20 01:46:10;;;;;;;1.23;1.15;;;;;;;21.02;33.30;101134.41;5072304;28;20036;-70
2022/12/20 01:48:38;;;;;;;1.23;1.13;;;;;;;21.06;33.22;101146.25;5053029;28;20154;-70
2022/12/20 01:51:03;;;;;;;1.17;1.17;;;;;;;20.99;33.48;101137.38;5068484;28;20127;-70
2022/12/20 01:53:30;;;;;;;1.92;1.25;;;;;;;21.02;33.47;101134.41;5078700;28;20548;-70
2022/12/20 01:56:02;;;;;;;0.93;0.93;;;;;;;21.04;33.22;101117.31;5069685;28;20033;-70
2022/12/20 01:58:29;;;;;;;1.13;1.00;;;;;;;20.97;33.44;101132.25;5071780;28;20101;-70
2022/12/20 02:00:54;;;;;;;1.20;1.10;;;;;;;20.99;33.61;101121.50;5058002;28;20032;-70
2022/12/20 02:03:20;;;;;;;1.20;1.10;;;;;;;21.01;33.23;101130.94;5072905;28;20913;-70
2022/12/20 02:05:45;;;;;;;1.38;1.10;;;;;;;20.97;33.39;101134.09;5079368;28;20401;-72
2022/12/20 02:08:15;;;;;;;1.33;1.20;;;;;;;21.03;33.34;101128.09;5072024;28;20050;-70
2022/12/20 02:11:01;;;;;;;0.90;0.90;;;;;;;21.02;33.31;101142.34;5075888;28;20063;-70
2022/12/20 02:13:41;;;;;;;1.92;1.13;;;;;;;20.99;33.46;101140.03;5073795;28;20059;-70
2022/12/20 02:16:06;;;;;;;2.03;1.33;;;;;;;20.98;33.46;101125.13;5073877;28;20039;-70
2022/12/20 02:18:44;;;;;;;1.73;1.33;;;;;;;20.98;33.47;101135.72;5078359;28;20039;-70
2022/12/20 02:21:17;;;;;;;1.77;1.05;;;;;;;20.96;33.62;101130.63;5093848;28;20501;-71
2022/12/20 02:23:54;;;;;;;1.00;0.90;;;;;;;20.97;33.61;101119.03;5069438;28;20043;-70
2022/12/20 02:27:06;;;;;;;1.25;1.10;;;;;;;20.93;33.69;101111.63;5088109;28;20089;-70
2022/12/20 02:30:13;;;;;;;1.25;1.10;;;;;;;21.01;33.32;101107.09;5073937;28;20139;-70
2022/12/20 02:32:56;;;;;;;1.38;1.10;;;;;;;20.98;33.50;101127.78;5074196;28;20085;-70
2022/12/20 02:35:26;;;;;;;1.02;0.95;;;;;;;20.90;33.66;101112.00;5072756;28;20024;-70
2022/12/20 02:37:55;;;;;;;1.05;1.02;;;;;;;20.96;33.38;101111.25;5089012;28;20067;-70
2022/12/20 02:40:25;;;;;;;1.35;1.25;;;;;;;20.96;33.72;101117.38;5064273;28;20094;-70
2022/12/20 02:42:59;;;;;;;0.70;0.70;;;;;;;20.93;33.70;101120.41;5071921;28;20070;-70
2022/12/20 02:45:34;;;;;;;1.13;1.02;;;;;;;20.91;33.52;101111.00;5091570;28;20032;-70
2022/12/20 02:48:10;;;;;;;1.38;0.95;;;;;;;20.97;33.63;101105.78;5071524;28;20035;-70
2022/12/20 02:50:41;;;;;;;1.00;1.00;;;;;;;20.89;33.71;101103.22;5077169;28;20040;-70
2022/12/20 02:53:08;;;;;;;1.25;1.15;;;;;;;20.94;33.53;101107.97;5079704;28;20113;-70
2022/12/20 02:55:49;;;;;;;1.15;1.00;;;;;;;20.97;33.54;101108.44;5075300;28;20032;-70
2022/12/20 02:58:27;;;;;;;0.90;0.90;;;;;;;20.95;33.72;101102.50;5073163;28;20603;-70
2022/12/20 03:00:55;;;;;;;1.00;1.00;;;;;;;20.97;33.54;101099.66;5072446;28;20067;-70
2022/12/20 03:03:21;;;;;;;1.10;1.00;;;;;;;20.96;33.61;101108.63;5078661;28;20039;-70
2022/12/20 03:05:48;;;;;;;1.98;1.27;;;;;;;20.90;33.69;101112.81;5077844;28;20044;-70
2022/12/20 03:08:18;;;;;;;1.42;1.23;;;;;;;20.90;33.72;101107.53;5075850;28;20071;-70
2022/12/20 03:10:43;;;;;;;1.20;1.10;;;;;;;20.88;33.75;101091.00;5069829;28;20036;-70
2022/12/20 03:13:09;;;;;;;1.20;1.20;;;;;;;20.88;33.78;101101.59;5078203;28;20078;-70
2022/12/20 03:15:40;;;;;;;0.90;0.90;;;;;;;20.92;33.71;101089.63;5078484;28;20064;-70
2022/12/20 03:18:06;;;;;;;1.85;1.05;;;;;;;20.95;33.53;101099.84;5078401;28;20043;-71
2022/12/20 03:20:32;;;;;;;1.17;0.90;;;;;;;20.92;33.68;101086.97;5077896;28;20053;-70
2022/12/20 03:22:57;;;;;;;1.33;1.10;;;;;;;20.93;33.68;101085.97;5078160;28;20051;-70
2022/12/20 03:25:23;;;;;;;0.90;0.90;;;;;;;20.88;33.76;101096.28;5053172;28;20055;-70
2022/12/20 03:27:49;;;;;;;0.95;0.95;;;;;;;20.95;33.81;101083.97;5075655;28;20032;-70
2022/12/20 03:30:16;;;;;;;1.30;0.90;;;;;;;20.91;33.78;101080.03;5069435;28;20048;-70
2022/12/20 03:32:42;;;;;;;1.13;0.90;;;;;;;20.91;33.57;101077.41;5078298;28;20129;-70
2022/12/20 03:35:07;;;;;;;1.33;1.08;;;;;;;20.88;33.78;101083.06;5074655;28;20582;-70
2022/12/20 03:37:36;;;;;;;1.17;1.08;;;;;;;20.90;33.95;101069.63;5076662;28;20036;-70
2022/12/20 03:40:04;;;;;;;1.27;1.17;;;;;;;20.91;33.91;101066.81;5076251;28;20872;-70
2022/12/20 03:42:31;;;;;;;1.10;1.00;;;;;;;20.88;33.88;101067.19;5071231;28;20493;-70
2022/12/20 03:44:57;;;;;;;1.45;1.10;;;;;;;20.85;33.96;101083.44;5079672;28;20036;-70
2022/12/20 03:47:25;;;;;;;1.20;1.10;;;;;;;20.85;34.10;101080.78;5074681;28;20070;-70
2022/12/20 03:49:51;;;;;;;0.68;0.60;;;;;;;20.85;33.82;101061.44;5076762;28;20048;-70
2022/12/20 03:52:18;;;;;;;1.33;1.20;;;;;;;20.80;33.85;101056.66;5074071;28;20121;-70
2022/12/20 03:54:43;;;;;;;0.95;0.93;;;;;;;20.90;34.01;101072.28;5078139;28;20052;-70
2022/12/20 03:57:15;;;;;;;0.80;0.80;;;;;;;20.90;33.79;101083.69;5082052;28;20044;-70
2022/12/20 03:59:43;;;;;;;1.23;1.13;;;;;;;20.84;33.91;101079.13;5089416;28;20040;-71
2022/12/20 04:02:13;;;;;;;1.00;0.93;;;;;;;20.83;34.08;101089.91;5076553;28;20058;-70
2022/12/20 04:04:39;;;;;;;1.02;0.88;;;;;;;20.79;33.87;101084.94;5076851;28;20068;-70
2022/12/20 04:07:05;;;;;;;0.85;0.80;;;;;;;20.89;34.04;101090.00;5075118;28;20043;-70
2022/12/20 04:09:31;;;;;;;1.58;0.80;;;;;;;20.80;33.87;101083.13;5077687;28;20031;-70
2022/12/20 04:12:04;;;;;;;1.13;1.02;;;;;;;20.85;33.99;101094.00;5092384;28;20046;-70
2022/12/20 04:14:30;;;;;;;0.75;0.75;;;;;;;20.80;34.19;101104.28;5088739;27;20047;-70
2022/12/20 04:16:56;;;;;;;0.93;0.93;;;;;;;20.81;34.04;101106.75;5075861;28;20056;-69
2022/12/20 04:19:23;;;;;;;1.30;1.20;;;;;;;20.82;33.98;101110.22;5077323;28;20111;-70
2022/12/20 04:21:49;;;;;;;0.50;0.50;;;;;;;20.77;34.02;101108.13;5073913;28;20036;-70
2022/12/20 04:24:17;;;;;;;0.90;0.90;;;;;;;20.82;34.13;101107.56;5077524;28;20038;-70
2022/12/20 04:27:09;;;;;;;0.93;0.93;;;;;;;20.78;34.03;101090.41;5073888;28;20165;-69
2022/12/20 04:29:35;;;;;;;0.98;0.85;;;;;;;20.85;34.02;101101.13;5074217;28;20059;-70
2022/12/20 04:32:03;;;;;;;1.05;0.90;;;;;;;20.77;34.12;101076.38;5075520;28;20044;-70
2022/12/20 04:34:29;;;;;;;0.82;0.82;;;;;;;20.80;34.20;101073.34;5076132;28;20047;-70
2022/12/20 04:36:56;;;;;;;0.88;0.77;;;;;;;20.76;34.10;101065.97;5048892;28;20032;-70
2022/12/20 04:39:32;;;;;;;1.17;1.08;;;;;;;20.81;34.07;101066.22;5088463;28;20036;-70
2022/12/20 04:42:15;;;;;;;0.93;0.93;;;;;;;20.79;34.24;101070.88;5074515;28;20036;-70
2022/12/20 04:44:41;;;;;;;1.05;1.05;;;;;;;20.78;34.09;101048.91;5077472;28;20157;-70
2022/12/20 04:47:09;;;;;;;1.25;0.90;;;;;;;20.79;33.99;101062.94;5072232;28;20058;-70
2022/12/20 04:49:35;;;;;;;0.90;0.90;;;;;;;20.70;34.16;101064.88;5074822;28;20078;-70
2022/12/20 04:53:46;;;;;;;1.58;0.93;;;;;;;20.81;34.11;101063.59;5079832;28;20465;-70
2022/12/20 04:54:47;;;;;;;0.88;0.88;;;;;;;20.79;34.21;101076.19;5093664;28;20418;-70
2022/12/20 04:57:16;;;;;;;0.70;0.70;;;;;;;20.75;34.17;101069.63;5072371;28;20028;-70
2022/12/20 04:59:42;;;;;;;0.77;0.73;;;;;;;20.75;34.23;101072.25;5071303;28;20527;-70
2022/12/20 05:02:09;;;;;;;1.17;1.17;;;;;;;20.74;34.22;101066.16;5072821;28;20191;-69
2022/12/20 05:04:44;;;;;;;0.60;0.60;;;;;;;20.78;34.33;101056.84;5068032;28;20117;-70
2022/12/20 05:07:10;;;;;;;0.82;0.82;;;;;;;20.78;34.22;101063.94;5072754;28;20069;-70
2022/12/20 05:09:37;;;;;;;1.00;1.00;;;;;;;20.75;34.21;101057.19;5056112;28;20324;-70
2022/12/20 05:12:04;;;;;;;1.10;1.00;;;;;;;20.74;34.25;101047.63;5071020;28;20033;-70
2022/12/20 05:14:30;;;;;;;0.80;0.80;;;;;;;20.80;34.12;101048.72;5070382;28;21735;-70
2022/12/20 05:16:55;;;;;;;0.90;0.90;;;;;;;20.66;34.60;101034.47;5070807;28;20035;-70
2022/12/20 05:19:21;;;;;;;1.45;1.00;;;;;;;20.79;34.28;101037.31;5077366;28;20521;-70
2022/12/20 05:27:26;;;;;;;1.02;0.90;;;;;;;20.70;34.51;101034.94;5071138;28;20040;-70
2022/12/20 05:29:52;;;;;;;1.13;0.85;;;;;;;20.73;34.31;101031.91;5073088;28;20044;-70
2022/12/20 05:32:19;;;;;;;0.63;0.60;;;;;;;20.75;34.41;101029.91;5076181;28;20115;-70
2022/12/20 05:34:45;;;;;;;1.27;1.17;;;;;;;20.71;34.18;101031.28;5072479;28;20486;-70
2022/12/20 05:37:10;;;;;;;0.70;0.70;;;;;;;20.69;34.30;101020.06;5077529;28;20048;-70
2022/12/20 05:39:38;;;;;;;2.35;0.80;;;;;;;20.69;34.55;101030.66;5055236;28;20054;-70
2022/12/20 05:42:09;;;;;;;0.88;0.70;;;;;;;20.69;34.44;101017.41;5092904;28;20465;-70
2022/12/20 05:44:35;;;;;;;0.82;0.82;;;;;;;20.69;34.37;101012.13;5077330;28;20069;-70
2022/12/20 05:47:01;;;;;;;1.73;1.13;;;;;;;20.71;34.43;101020.69;5067758;28;20032;-71
2022/12/20 05:49:29;;;;;;;0.60;0.60;;;;;;;20.77;34.32;101017.31;5069058;28;20367;-71
2022/12/20 05:51:58;;;;;;;0.98;0.93;;;;;;;20.70;34.51;101019.88;5074220;28;20032;-70
2022/12/20 05:54:24;;;;;;;0.80;0.80;;;;;;;20.66;34.51;101015.97;5064675;28;20032;-70
2022/12/20 05:57:04;;;;;;;0.90;0.90;;;;;;;20.69;34.41;101007.66;5070477;28;20059;-71
2022/12/20 05:59:36;;;;;;;0.82;0.82;;;;;;;20.68;34.34;101016.59;5074358;28;20104;-70
2022/12/20 06:02:03;;;;;;;0.80;0.80;;;;;;;20.70;34.42;101013.75;5069979;28;20768;-70
2022/12/20 06:04:31;;;;;;;0.80;0.80;;;;;;;20.75;34.26;101011.38;5070199;28;20519;-70
2022/12/20 06:06:57;;;;;;;0.93;0.90;;;;;;;20.66;34.45;101002.72;5074337;28;20063;-70
2022/12/20 06:09:23;;;;;;;0.90;0.90;;;;;;;20.69;34.45;100994.41;5069724;28;20127;-69
2022/12/20 06:11:58;;;;;;;0.60;0.60;;;;;;;20.70;34.44;101003.19;5073248;28;20043;-70
2022/12/20 06:14:25;;;;;;;0.93;0.93;;;;;;;20.70;34.59;100997.88;5074345;28;20575;-70
2022/12/20 06:16:53;;;;;;;0.98;0.98;;;;;;;20.67;34.62;101003.56;5069022;28;20397;-70
2022/12/20 06:19:21;;;;;;;0.95;0.90;;;;;;;20.74;34.46;101002.63;5058986;28;20038;-70
2022/12/20 06:21:47;;;;;;;0.80;0.80;;;;;;;20.70;34.50;101009.28;5073636;28;20297;-70
2022/12/20 06:24:15;;;;;;;0.95;0.93;;;;;;;20.68;34.56;101013.94;5078229;28;20032;-70
2022/12/20 06:26:43;;;;;;;0.90;0.90;;;;;;;20.69;34.60;101009.47;5072666;28;20025;-70
2022/12/20 06:29:13;;;;;;;0.50;0.50;;;;;;;20.63;34.74;100996.94;5073249;28;20060;-70
2022/12/20 06:31:48;;;;;;;0.63;0.63;;;;;;;20.66;34.64;101002.72;5076295;28;20079;-70
2022/12/20 06:34:14;;;;;;;0.70;0.70;;;;;;;20.66;34.74;101008.03;5074816;28;20035;-70
2022/12/20 06:36:42;;;;;;;1.10;1.02;;;;;;;20.67;34.52;101008.84;5066558;28;20063;-70
2022/12/20 06:39:14;;;;;;;1.42;0.80;;;;;;;20.77;34.54;101002.25;5078510;28;20071;-70
2022/12/20 06:41:48;;;;;;;0.80;0.80;;;;;;;20.70;34.67;101014.59;5071626;28;20044;-70
2022/12/20 06:44:14;;;;;;;1.45;0.93;;;;;;;20.73;34.58;101006.28;5077772;28;20644;-70
2022/12/20 06:46:39;;;;;;;1.05;1.05;;;;;;;20.70;34.57;101004.00;5076910;28;20077;-70
2022/12/20 06:49:05;;;;;;;0.90;0.90;;;;;;;20.67;34.67;100999.06;5074465;28;20136;-71
2022/12/20 06:51:31;;;;;;;0.93;0.88;;;;;;;20.71;34.53;101004.81;5080102;28;20541;-70
2022/12/20 06:53:57;;;;;;;0.70;0.70;;;;;;;20.68;34.87;101008.66;5076494;28;20052;-69
2022/12/20 06:56:23;;;;;;;0.82;0.80;;;;;;;21.27;33.70;100999.91;5077245;28;20035;-70
2022/12/20 06:58:49;;;;;;;0.60;0.60;;;;;;;22.42;32.07;100999.88;5074544;28;20077;-69
2022/12/20 07:01:15;;;;;;;0.70;0.70;;;;;;;23.07;31.16;101006.66;5072305;28;20040;-69
2022/12/20 07:03:40;;;;;;;0.77;0.77;;;;;;;23.15;31.01;100998.50;5078172;28;21379;-70
2022/12/20 07:06:06;;;;;;;0.80;0.73;;;;;;;23.18;30.83;100996.28;5074710;28;20040;-70
2022/12/20 07:08:31;;;;;;;1.17;0.93;;;;;;;23.17;31.25;100993.84;5071412;28;20036;-69
2022/12/20 07:11:03;;;;;;;1.27;0.85;;;;;;;23.01;31.26;100992.34;5079369;28;20054;-69
2022/12/20 07:13:29;;;;;;;0.60;0.60;;;;;;;22.89;31.46;100994.72;5076571;28;20047;-69
2022/12/20 07:16:00;;;;;;;1.30;0.98;;;;;;;22.70;31.84;100978.63;5073706;28;20559;-70
2022/12/20 07:18:26;;;;;;;0.43;0.43;;;;;;;22.58;32.44;100981.00;5077641;28;20100;-70
2022/12/20 07:20:51;;;;;;;0.70;0.70;;;;;;;22.46;32.64;100982.56;5084966;28;20043;-69
2022/12/20 07:23:17;;;;;;;0.93;0.80;;;;;;;22.36;32.86;100984.72;5080123;28;20040;-69
2022/12/20 07:25:51;;;;;;;0.80;0.80;;;;;;;22.27;32.82;100986.72;5080950;28;20041;-70
2022/12/20 07:28:16;;;;;;;1.10;0.90;;;;;;;22.23;32.86;100988.09;5072744;28;20044;-69
2022/12/20 07:30:42;;;;;;;0.65;0.65;;;;;;;22.20;33.00;100999.09;5077313;28;20040;-71
2022/12/20 07:33:07;;;;;;;1.05;0.63;;;;;;;22.15;32.92;100988.22;5072529;28;20505;-69
2022/12/20 07:35:33;;;;;;;0.77;0.77;;;;;;;22.09;33.37;100992.47;5076676;28;20028;-70
2022/12/20 07:37:58;;;;;;;0.70;0.70;;;;;;;22.06;33.30;100989.34;5076531;28;20806;-69
2022/12/20 07:40:24;;;;;;;1.00;0.82;;;;;;;21.97;33.54;100984.16;5076880;28;20040;-69
2022/12/20 07:42:49;;;;;;;0.60;0.60;;;;;;;21.92;33.45;100983.09;5074102;28;20028;-69
2022/12/20 07:45:16;;;;;;;0.80;0.80;;;;;;;21.95;33.42;100980.91;5071758;28;20036;-69
2022/12/20 07:47:42;;;;;;;1.27;0.98;;;;;;;21.91;33.75;100979.63;5079751;28;20036;-69
2022/12/20 07:50:08;;;;;;;0.68;0.60;;;;;;;21.82;33.55;100980.75;5082364;28;20263;-69
2022/12/20 07:52:34;;;;;;;0.98;0.98;;;;;;;21.77;33.76;100982.34;5079009;28;20522;-69
2022/12/20 07:55:02;;;;;;;0.77;0.77;;;;;;;21.74;33.87;100978.25;5080297;28;20484;-69
2022/12/20 07:57:37;;;;;;;0.60;0.60;;;;;;;21.73;34.20;100978.44;5075397;28;20040;-69
2022/12/20 08:00:04;;;;;;;0.77;0.77;;;;;;;21.59;33.93;100977.47;5073860;28;20052;-69
2022/12/20 08:02:51;;;;;;;0.98;0.68;;;;;;;21.71;34.15;100986.53;5077784;28;20063;-68
2022/12/20 08:05:16;;;;;;;1.52;0.68;;;;;;;21.49;35.42;100971.63;5074179;28;20038;-68
2022/12/20 08:07:45;;;;;;;0.80;0.80;;;;;;;21.39;35.65;100982.53;5074853;28;20060;-68
2022/12/20 08:10:16;;;;;;;1.42;0.80;;;;;;;21.22;35.64;100987.19;5073916;28;20044;-68
2022/12/20 08:12:44;;;;;;;1.10;0.77;;;;;;;21.28;35.60;100981.19;5069153;28;20041;-68
2022/12/20 08:15:09;;;;;;;1.88;0.85;;;;;;;21.25;35.76;100981.56;5073789;28;20079;-68
2022/12/20 08:17:35;;;;;;;1.00;0.80;;;;;;;21.24;35.95;100979.91;5081547;28;20469;-68
2022/12/20 08:20:07;;;;;;;0.90;0.80;;;;;;;21.12;35.56;100979.53;5072357;28;20032;-67
2022/12/20 08:22:33;;;;;;;1.20;0.60;;;;;;;21.29;35.85;100982.00;5075965;28;20036;-67
2022/12/20 08:24:59;;;;;;;1.80;0.90;;;;;;;21.50;35.27;100973.28;5068327;28;20171;-69
2022/12/20 08:27:25;;;;;;;0.90;0.88;;;;;;;21.83;34.86;100977.09;5072039;28;20150;-69
2022/12/20 08:29:50;;;;;;;2.13;0.90;;;;;;;22.06;34.67;100976.09;5070670;28;20056;-68
2022/12/20 08:32:16;;;;;;;3.67;1.30;;;;;;;22.11;34.58;100971.06;5075707;28;20040;-71
2022/12/20 08:34:41;;;;;;;1.80;1.10;;;;;;;22.09;34.47;100967.78;5067437;28;20032;-73
2022/12/20 08:37:07;;;;;;;2.00;0.80;;;;;;;22.11;34.33;100969.22;5073903;28;20040;-73
2022/12/20 08:39:32;;;;;;;0.80;0.80;;;;;;;22.10;33.99;100962.28;5072177;28;20097;-73
2022/12/20 08:41:58;;;;;;;2.78;1.10;;;;;;;22.10;34.30;100966.78;5072962;28;20094;-72
2022/12/20 08:44:24;;;;;;;2.70;1.00;;;;;;;22.06;34.19;100958.34;5069546;28;20051;-73
2022/12/20 08:46:50;;;;;;;1.55;1.13;;;;;;;22.01;34.50;100963.38;5070724;28;20032;-73
2022/12/20 08:49:15;;;;;;;1.17;0.82;;;;;;;22.00;34.20;100970.53;5071422;28;20024;-74
2022/12/20 08:51:41;;;;;;;0.85;0.70;;;;;;;21.84;34.81;100954.88;5071365;28;20044;-73
2022/12/20 08:54:07;;;;;;;1.02;0.80;;;;;;;21.91;34.60;100958.44;5069898;28;20051;-73
2022/12/20 08:56:32;;;;;;;0.80;0.80;;;;;;;21.74;34.81;100959.69;5072173;28;20040;-71
2022/12/20 08:58:58;;;;;;;2.40;1.20;;;;;;;21.61;35.12;100957.72;5073109;28;20387;-73
2022/12/20 09:01:25;;;;;;;2.05;1.00;;;;;;;21.54;35.16;100948.03;5069932;28;20028;-73
2022/12/20 09:03:51;;;;;;;0.70;0.68;;;;;;;21.60;35.02;100957.91;5074588;28;20134;-73
2022/12/20 09:06:20;;;;;;;1.00;0.88;;;;;;;21.57;35.15;100940.56;5067928;28;20048;-73
2022/12/20 09:08:46;;;;;;;0.70;0.70;;;;;;;21.59;35.10;100953.63;5071996;28;20036;-73
2022/12/20 09:11:21;;;;;;;0.70;0.70;;;;;;;21.63;35.07;100947.75;5066913;28;20032;-73
2022/12/20 09:13:49;;;;;;;0.75;0.70;;;;;;;21.48;35.33;100954.91;5076322;28;20055;-73
2022/12/20 09:16:17;;;;;;;0.68;0.68;;;;;;;21.58;34.85;100954.63;5067295;28;20086;-73
2022/12/20 09:18:43;;;;;;;1.48;0.90;;;;;;;21.43;34.94;100933.47;5072516;28;20077;-73
2022/12/20 09:21:10;;;;;;;2.78;0.80;;;;;;;21.42;35.22;100935.31;5074436;28;20425;-73
2022/12/20 09:23:36;;;;;;;0.68;0.68;;;;;;;21.47;35.24;100940.03;5077078;28;20039;-72
2022/12/20 09:26:05;;;;;;;1.67;0.98;;;;;;;21.39;35.13;100937.50;5073638;28;20690;-72
2022/12/20 09:28:31;;;;;;;0.82;0.63;;;;;;;21.39;35.11;100938.34;5068119;28;20028;-73
2022/12/20 09:30:58;;;;;;;1.08;0.88;;;;;;;21.31;35.39;100930.47;5070606;28;20458;-73
2022/12/20 09:33:23;;;;;;;0.82;0.82;;;;;;;21.29;35.52;100929.03;5065961;28;20071;-74
2022/12/20 09:35:49;;;;;;;0.90;0.80;;;;;;;21.32;35.25;100926.81;5074681;28;20106;-73
2022/12/20 09:38:15;;;;;;;0.85;0.80;;;;;;;21.45;34.96;100934.09;5072871;28;20427;-74
2022/12/20 09:40:45;;;;;;;0.85;0.85;;;;;;;21.50;34.84;100938.84;5069806;28;20133;-72
2022/12/20 09:43:13;;;;;;;0.68;0.68;;;;;;;21.50;34.95;100942.31;5073465;28;20737;-72
2022/12/20 09:45:39;;;;;;;1.95;1.10;;;;;;;21.50;34.78;100952.06;5075130;28;20093;-72
2022/12/20 09:48:13;;;;;;;1.30;1.00;;;;;;;21.52;35.09;100953.53;5075700;28;20190;-72
2022/12/20 09:50:52;;;;;;;0.80;0.80;;;;;;;21.50;34.63;100955.53;5078531;28;20044;-72
2022/12/20 09:53:33;;;;;;;0.75;0.75;;;;;;;21.49;34.82;100945.97;5073373;28;20055;-72
2022/12/20 09:56:06;;;;;;;0.98;0.93;;;;;;;21.44;34.85;100956.31;5074322;28;20578;-73
2022/12/20 09:58:54;;;;;;;0.95;0.85;;;;;;;21.48;35.17;100957.56;5082959;28;20066;-73
2022/12/20 10:01:21;;;;;;;1.00;0.73;;;;;;;21.48;34.98;100946.97;5079734;28;20041;-73
2022/12/20 10:03:46;;;;;;;0.60;0.60;;;;;;;21.47;34.94;100944.50;5079974;28;20044;-73
2022/12/20 10:06:39;;;;;;;0.70;0.70;;;;;;;21.48;34.83;100941.66;5081065;28;20048;-72
2022/12/20 10:09:18;;;;;;;0.55;0.43;;;;;;;21.52;34.85;100940.28;5078758;28;20424;-72
2022/12/20 10:12:00;;;;;;;1.10;1.00;;;;;;;21.47;35.00;100933.91;5074048;28;20584;-73
2022/12/20 10:14:44;;;;;;;0.98;0.90;;;;;;;21.49;34.97;100923.94;5080274;28;20085;-72
2022/12/20 10:17:21;;;;;;;1.13;0.93;;;;;;;21.53;34.87;100918.06;5078075;28;20381;-73
2022/12/20 10:20:14;;;;;;;0.82;0.77;;;;;;;21.93;33.95;100929.88;5082411;28;20081;-72
2022/12/20 10:23:07;;;;;;;1.00;0.73;;;;;;;22.16;33.50;100935.00;5077421;28;20033;-73
2022/12/20 10:25:34;;;;;;;0.60;0.60;;;;;;;22.13;33.74;100940.69;5072133;28;20047;-73
2022/12/20 10:28:03;;;;;;;0.50;0.50;;;;;;;22.12;34.04;100949.66;5083212;28;20040;-73
2022/12/20 10:30:31;;;;;;;0.60;0.60;;;;;;;22.14;33.70;100938.84;5078247;28;20139;-74
2022/12/20 10:32:57;;;;;;;0.73;0.68;;;;;;;22.08;33.90;100939.59;5079528;28;20028;-75
2022/12/20 10:35:26;;;;;;;0.80;0.80;;;;;;;21.92;34.02;100922.94;5077922;28;20535;-73
2022/12/20 10:38:12;;;;;;;1.80;0.90;;;;;;;21.82;34.23;100929.56;5073950;28;20155;-73
2022/12/20 10:40:41;;;;;;;0.40;0.40;;;;;;;21.55;34.68;100924.03;5089308;28;20040;-73
2022/12/20 10:43:36;;;;;;;1.30;0.87;;;;;;;21.47;35.04;100905.59;5078745;28;20027;-77
2022/12/20 10:46:06;;;;;;;1.17;0.93;;;;;;;21.37;35.33;100916.50;5078027;28;20450;-72
2022/12/20 10:48:35;;;;;;;0.70;0.70;;;;;;;21.41;35.09;100922.25;5073807;28;21385;-71
2022/12/20 10:51:08;;;;;;;1.35;0.93;;;;;;;21.38;35.38;100920.78;5074636;28;20490;-72
2022/12/20 10:53:35;;;;;;;2.53;1.13;;;;;;;21.26;35.40;100905.56;5082270;28;20395;-72
2022/12/20 10:56:21;;;;;;;0.60;0.60;;;;;;;21.39;35.21;100916.31;5092904;27;20063;-72
2022/12/20 10:58:57;;;;;;;1.35;0.85;;;;;;;21.29;35.39;100915.78;5074915;28;20708;-72
2022/12/20 11:01:26;;;;;;;0.70;0.70;;;;;;;21.33;35.33;100911.75;5080327;28;20138;-72
2022/12/20 11:03:55;;;;;;;1.20;1.00;;;;;;;21.33;35.36;100895.84;5075938;28;20138;-72
2022/12/20 11:06:25;;;;;;;0.77;0.77;;;;;;;21.51;34.74;100895.44;5078475;28;20020;-72
2022/12/20 11:08:51;;;;;;;;;;;;;;;21.53;34.97;100890.75;5072690;28;20670;-72
2022/12/20 11:11:23;;;;;;;1.08;0.90;;;;;;;21.54;34.67;100892.41;5072783;28;19920;-72
2022/12/20 11:13:50;;;;;;;0.70;0.70;;;;;;;21.52;34.76;100892.59;5072892;28;20040;-72
2022/12/20 11:16:21;;;;;;;0.85;0.80;;;;;;;21.53;34.67;100882.81;5072737;28;20027;-72
2022/12/20 11:19:12;;;;;;;1.65;1.05;;;;;;;21.58;34.48;100889.19;5074056;28;20549;-72
2022/12/20 11:21:43;;;;;;;0.70;0.70;;;;;;;21.48;34.66;100891.34;5072187;28;20039;-72
2022/12/20 11:24:37;;;;;;;0.55;0.50;;;;;;;21.55;34.73;100886.13;5073385;28;20066;-72
2022/12/20 11:27:29;;;;;;;0.80;0.68;;;;;;;21.51;34.65;100896.25;5072882;28;20045;-72
2022/12/20 11:30:08;;;;;;;0.73;0.70;;;;;;;21.48;34.86;100890.50;5073183;28;20048;-71
2022/12/20 11:32:52;;;;;;;1.05;0.95;;;;;;;21.50;34.77;100889.31;5069318;28;20037;-72
2022/12/20 11:35:21;;;;;;;1.00;0.90;;;;;;;21.54;34.75;100901.16;5075660;28;20118;-71
2022/12/20 11:38:05;;;;;;;0.90;0.80;;;;;;;21.49;34.88;100889.50;5074980;28;20127;-71
2022/12/20 11:41:04;;;;;;;0.95;0.90;;;;;;;21.49;34.69;100881.56;5073693;28;20453;-71